createdAt,value
2023-04-10T00:00:59.979Z,2.10
2023-04-10T00:03:28.121Z,2.10
2023-04-10T00:05:57.305Z,2.00
2023-04-10T00:08:25.824Z,1.90
2023-04-10T00:10:54.463Z,1.90
2023-04-10T00:13:22.398Z,1.80
2023-04-10T00:15:51.754Z,1.90
2023-04-10T00:18:19.626Z,2.00
2023-04-10T00:20:47.509Z,1.90
2023-04-10T00:23:15.458Z,1.90
2023-04-10T00:25:43.279Z,2.00
2023-04-10T00:28:11.145Z,2.00
2023-04-10T00:30:39.002Z,2.00
2023-04-10T00:33:08.309Z,2.00
2023-04-10T00:35:36.196Z,2.00
2023-04-10T00:38:04.045Z,2.00
2023-04-10T00:40:32.079Z,1.80
2023-04-10T00:43:00.033Z,1.80
2023-04-10T00:45:28.159Z,1.80
2023-04-10T00:47:56.569Z,1.80
2023-04-10T00:50:25.953Z,1.80
2023-04-10T00:52:54.405Z,1.80
2023-04-10T00:55:24.417Z,1.70
2023-04-10T00:57:53.233Z,1.80
2023-04-10T01:00:22.113Z,1.80
2023-04-10T01:02:50.342Z,1.80
2023-04-10T01:05:18.631Z,1.80
2023-04-10T01:08:01.401Z,1.80
2023-04-10T01:10:39.422Z,1.70
2023-04-10T01:13:16.853Z,1.70
2023-04-10T01:15:50.471Z,1.70
2023-04-10T01:18:27.591Z,1.60
2023-04-10T01:20:56.213Z,1.50
2023-04-10T01:23:55.224Z,1.40
2023-04-10T01:26:40.706Z,1.20
2023-04-10T01:29:15.969Z,1.20
2023-04-10T01:31:47.713Z,1.20
2023-04-10T01:34:20.083Z,1.10
2023-04-10T01:36:52.535Z,1.10
2023-04-10T01:39:22.107Z,1.10
2023-04-10T01:41:53.145Z,1.10
2023-04-10T01:44:29.980Z,1.00
2023-04-10T01:46:58.846Z,1.00
2023-04-10T01:49:29.253Z,1.00
2023-04-10T01:52:04.313Z,0.90
2023-04-10T01:54:33.759Z,1.00
2023-04-10T01:57:03.980Z,1.00
2023-04-10T01:59:40.675Z,0.90
2023-04-10T02:02:11.739Z,0.90
2023-04-10T02:04:40.123Z,0.90
2023-04-10T02:07:16.553Z,0.80
2023-04-10T02:09:51.090Z,0.90
2023-04-10T02:12:24.574Z,0.90
2023-04-10T02:14:58.468Z,0.90
2023-04-10T02:17:29.470Z,0.90
2023-04-10T02:19:59.191Z,1.00
2023-04-10T02:22:27.630Z,1.10
2023-04-10T02:24:55.685Z,1.10
2023-04-10T02:27:30.995Z,0.90
2023-04-10T02:30:02.450Z,1.10
2023-04-10T02:32:32.931Z,1.00
2023-04-10T02:35:02.106Z,1.00
2023-04-10T02:37:31.108Z,0.90
2023-04-10T02:40:01.442Z,0.90
2023-04-10T02:42:36.235Z,0.90
2023-04-10T02:45:07.349Z,0.80
2023-04-10T02:47:40.093Z,0.90
2023-04-10T02:50:08.917Z,0.80
2023-04-10T02:52:39.474Z,0.80
2023-04-10T02:55:08.313Z,0.70
2023-04-10T02:57:38.482Z,0.70
2023-04-10T03:00:09.696Z,0.70
2023-04-10T03:03:06.810Z,0.70
2023-04-10T03:05:43.235Z,0.80
2023-04-10T03:08:11.227Z,0.80
2023-04-10T03:10:39.077Z,0.70
2023-04-10T03:13:06.898Z,0.50
2023-04-10T03:15:36.161Z,0.30
2023-04-10T03:18:04.250Z,0.40
2023-04-10T03:20:32.298Z,0.40
2023-04-10T03:23:00.609Z,0.30
2023-04-10T03:25:28.829Z,0.30
2023-04-10T03:27:57.404Z,0.30
2023-04-10T03:30:25.472Z,0.40
2023-04-10T03:32:55.051Z,0.50
2023-04-10T03:35:23.610Z,0.50
2023-04-10T03:37:51.584Z,0.50
2023-04-10T03:40:19.519Z,0.40
2023-04-10T03:42:47.576Z,0.20
2023-04-10T03:45:15.928Z,0.20
2023-04-10T03:47:43.988Z,0.30
2023-04-10T03:50:16.486Z,0.20
2023-04-10T03:52:53.043Z,0.20
2023-04-10T03:55:23.259Z,0.30
2023-04-10T03:57:52.462Z,0.20
2023-04-10T04:00:25.518Z,0.20
2023-04-10T04:03:04.816Z,0.30
2023-04-10T04:06:07.425Z,0.30
2023-04-10T04:08:55.248Z,0.30
2023-04-10T04:11:42.687Z,0.40
2023-04-10T04:14:28.588Z,0.30
2023-04-10T04:17:16.754Z,0.30
2023-04-10T04:20:09.043Z,0.30
2023-04-10T04:22:51.036Z,0.40
2023-04-10T04:25:38.363Z,0.30
2023-04-10T04:28:41.770Z,0.30
2023-04-10T04:31:32.414Z,0.40
2023-04-10T04:34:19.112Z,0.40
2023-04-10T04:37:07.386Z,0.40
2023-04-10T04:39:47.489Z,0.40
2023-04-10T04:42:24.486Z,0.40
2023-04-10T04:45:09.524Z,0.40
2023-04-10T04:48:07.495Z,0.50
2023-04-10T04:50:53.644Z,0.50
2023-04-10T04:53:38.758Z,0.60
2023-04-10T04:56:23.886Z,0.60
2023-04-10T04:59:08.625Z,0.60
2023-04-10T05:01:56.979Z,0.80
2023-04-10T05:05:03.305Z,1.10
2023-04-10T05:07:44.984Z,1.50
2023-04-10T05:10:39.061Z,1.90
2023-04-10T05:13:26.821Z,2.20
2023-04-10T05:16:11.597Z,2.40
2023-04-10T05:18:57.132Z,2.50
2023-04-10T05:21:48.197Z,2.90
2023-04-10T05:24:25.299Z,3.40
2023-04-10T05:27:13.495Z,3.90
2023-04-10T05:30:02.345Z,4.60
2023-04-10T05:32:48.930Z,4.80
2023-04-10T05:35:24.695Z,5.20
2023-04-10T05:37:58.912Z,5.50
2023-04-10T05:40:34.150Z,5.80
2023-04-10T05:43:22.864Z,6.10
2023-04-10T05:46:14.991Z,6.50
2023-04-10T05:48:55.205Z,7.10
2023-04-10T05:51:34.762Z,7.70
2023-04-10T05:54:25.835Z,8.30
2023-04-10T05:57:19.607Z,9.10
2023-04-10T06:00:08.069Z,9.80
2023-04-10T06:02:43.445Z,10.00
2023-04-10T06:05:21.142Z,10.20
2023-04-10T06:07:49.262Z,10.50
2023-04-10T06:10:17.088Z,10.60
2023-04-10T06:12:45.876Z,11.90
2023-04-10T06:15:14.896Z,12.70
2023-04-10T06:17:44.938Z,13.30
2023-04-10T06:20:14.128Z,13.20
2023-04-10T06:22:41.959Z,14.20
2023-04-10T06:25:10.812Z,14.40
2023-04-10T06:27:38.896Z,14.80
2023-04-10T06:30:11.206Z,15.90
2023-04-10T06:32:39.176Z,16.80
2023-04-10T06:35:09.295Z,15.80
2023-04-10T06:37:37.238Z,16.80
2023-04-10T06:40:08.196Z,17.00
2023-04-10T06:42:36.880Z,16.50
2023-04-10T06:45:12.681Z,16.10
2023-04-10T06:47:40.592Z,16.30
2023-04-10T06:50:10.964Z,15.90
2023-04-10T06:52:38.827Z,16.00
2023-04-10T06:55:07.624Z,16.90
2023-04-10T06:57:35.516Z,17.90
2023-04-10T07:00:03.642Z,18.70
2023-04-10T07:02:31.618Z,18.20
2023-04-10T07:04:59.522Z,17.40
2023-04-10T07:07:29.259Z,16.20
2023-04-10T07:09:58.545Z,16.90
2023-04-10T07:12:26.800Z,15.50
2023-04-10T07:14:54.670Z,17.60
2023-04-10T07:17:23.029Z,17.80
2023-04-10T07:19:50.885Z,16.60
2023-04-10T07:22:18.775Z,17.10
2023-04-10T07:24:48.246Z,17.40
2023-04-10T07:27:17.098Z,19.40
2023-04-10T07:29:44.930Z,22.10
2023-04-10T07:32:12.843Z,22.30
2023-04-10T07:34:42.054Z,21.30
2023-04-10T07:37:09.873Z,20.10
2023-04-10T07:39:37.815Z,18.80
2023-04-10T07:42:07.165Z,19.10
2023-04-10T07:44:35.009Z,20.20
2023-04-10T07:47:02.888Z,19.00
2023-04-10T07:49:30.887Z,18.20
2023-04-10T07:51:58.738Z,19.50
2023-04-10T07:54:26.738Z,19.70
2023-04-10T07:56:54.693Z,18.90
2023-04-10T07:59:23.917Z,17.90
2023-04-10T08:01:51.858Z,17.50
2023-04-10T08:04:19.959Z,18.10
2023-04-10T08:06:49.398Z,19.10
2023-04-10T08:09:17.403Z,19.30
2023-04-10T08:11:45.350Z,19.10
2023-04-10T08:14:13.494Z,18.40
2023-04-10T08:16:47.825Z,18.70
2023-04-10T08:19:15.663Z,19.90
2023-04-10T08:21:43.533Z,19.20
2023-04-10T08:24:11.626Z,19.60
2023-04-10T08:26:39.491Z,19.10
2023-04-10T08:29:07.682Z,20.50
2023-04-10T08:31:35.771Z,19.20
2023-04-10T08:34:05.040Z,19.10
2023-04-10T08:36:33.390Z,19.50
2023-04-10T08:39:01.317Z,18.30
2023-04-10T08:41:29.358Z,18.10
2023-04-10T08:43:58.551Z,18.80
2023-04-10T08:46:27.364Z,18.60
2023-04-10T08:49:02.777Z,20.00
2023-04-10T08:51:38.195Z,21.20
2023-04-10T08:54:08.872Z,20.10
2023-04-10T08:56:40.383Z,17.30
2023-04-10T08:59:09.345Z,17.60
2023-04-10T09:01:37.410Z,17.60
2023-04-10T09:04:06.069Z,17.30
2023-04-10T09:06:35.424Z,17.30
2023-04-10T09:09:03.375Z,18.50
2023-04-10T09:12:00.736Z,19.40
2023-04-10T09:14:30.563Z,20.50
2023-04-10T09:17:13.302Z,19.00
2023-04-10T09:19:41.406Z,20.50
2023-04-10T09:22:11.171Z,20.20
2023-04-10T09:24:40.304Z,21.20
2023-04-10T09:27:08.486Z,20.20
2023-04-10T09:29:44.971Z,23.40
2023-04-10T09:32:13.154Z,23.70
2023-04-10T09:34:54.911Z,23.70
2023-04-10T09:37:31.810Z,22.70
2023-04-10T09:39:59.687Z,22.10
2023-04-10T09:42:33.561Z,23.60
2023-04-10T09:45:02.371Z,22.50
2023-04-10T09:47:30.848Z,23.10
2023-04-10T09:50:01.270Z,21.10
2023-04-10T09:52:32.317Z,21.40
2023-04-10T09:55:01.578Z,21.10
2023-04-10T09:57:31.716Z,22.20
2023-04-10T10:00:01.293Z,23.20
2023-04-10T10:02:39.795Z,23.70
2023-04-10T10:05:09.093Z,24.10
2023-04-10T10:07:39.780Z,23.80
2023-04-10T10:10:09.107Z,22.30
2023-04-10T10:12:41.665Z,22.20
2023-04-10T10:15:15.745Z,23.60
2023-04-10T10:17:52.024Z,23.90
2023-04-10T10:20:23.254Z,22.70
2023-04-10T10:22:53.603Z,21.80
2023-04-10T10:25:21.755Z,22.80
2023-04-10T10:27:53.389Z,22.90
2023-04-10T10:30:30.195Z,23.10
2023-04-10T10:32:59.933Z,22.80
2023-04-10T10:35:29.958Z,21.90
2023-04-10T10:38:00.649Z,22.20
2023-04-10T10:40:32.364Z,24.20
2023-04-10T10:43:11.767Z,24.20
2023-04-10T10:45:45.200Z,21.50
2023-04-10T10:48:13.238Z,21.40
2023-04-10T10:50:56.244Z,20.60
2023-04-10T10:53:50.450Z,21.00
2023-04-10T10:56:37.488Z,21.20
2023-04-10T10:59:05.427Z,22.90
2023-04-10T11:01:33.530Z,23.70
2023-04-10T11:04:02.236Z,23.20
2023-04-10T11:06:49.877Z,22.50
2023-04-10T11:09:48.393Z,22.80
2023-04-10T11:12:17.106Z,22.30
2023-04-10T11:14:46.063Z,22.70
2023-04-10T11:17:14.170Z,23.10
2023-04-10T11:20:01.524Z,22.70
2023-04-10T11:22:29.459Z,22.30
2023-04-10T11:25:01.785Z,22.20
2023-04-10T11:27:44.672Z,22.90
2023-04-10T11:30:36.284Z,23.10
2023-04-10T11:33:06.509Z,22.50
2023-04-10T11:35:35.749Z,22.20
2023-04-10T11:38:14.500Z,20.80
2023-04-10T11:41:02.926Z,20.70
2023-04-10T11:43:31.600Z,20.70
2023-04-10T11:46:08.556Z,20.60
2023-04-10T11:48:37.584Z,21.00
2023-04-10T11:51:10.013Z,22.20
2023-04-10T11:53:38.446Z,21.90
2023-04-10T11:56:16.624Z,21.30
2023-04-10T11:58:44.911Z,20.30
2023-04-10T12:01:14.575Z,19.70
2023-04-10T12:03:43.800Z,17.80
2023-04-10T12:06:13.367Z,16.70
2023-04-10T12:08:45.219Z,16.20
2023-04-10T12:11:16.020Z,15.60
2023-04-10T12:13:43.950Z,15.90
2023-04-10T12:16:12.355Z,15.70
2023-04-10T12:18:40.609Z,15.70
2023-04-10T12:21:09.063Z,15.40
2023-04-10T12:23:39.472Z,15.10
2023-04-10T12:26:10.671Z,14.70
2023-04-10T12:28:41.844Z,14.70
2023-04-10T12:31:10.287Z,14.90
2023-04-10T12:33:38.330Z,15.00
2023-04-10T12:36:06.723Z,14.80
2023-04-10T12:38:39.725Z,14.70
2023-04-10T12:41:08.824Z,14.60
2023-04-10T12:43:40.179Z,15.00
2023-04-10T12:46:09.739Z,14.50
2023-04-10T12:48:37.892Z,14.50
2023-04-10T12:51:06.182Z,14.40
2023-04-10T12:53:44.211Z,14.30
2023-04-10T12:56:13.323Z,14.40
2023-04-10T12:58:43.012Z,14.30
2023-04-10T13:01:11.177Z,14.40
2023-04-10T13:03:39.510Z,14.10
2023-04-10T13:06:08.563Z,14.30
2023-04-10T13:08:36.669Z,14.60
2023-04-10T13:11:04.565Z,14.40
2023-04-10T13:13:33.025Z,14.50
2023-04-10T13:16:02.359Z,14.40
2023-04-10T13:18:30.332Z,14.60
2023-04-10T13:20:58.192Z,14.90
2023-04-10T13:23:26.050Z,15.10
2023-04-10T13:25:54.358Z,14.90
2023-04-10T13:28:22.202Z,15.10
2023-04-10T13:30:50.110Z,15.20
2023-04-10T13:33:19.300Z,14.80
2023-04-10T13:35:47.153Z,14.60
2023-04-10T13:38:15.852Z,14.70
2023-04-10T13:40:43.745Z,15.00
2023-04-10T13:43:11.622Z,15.20
2023-04-10T13:45:39.434Z,14.70
2023-04-10T13:48:08.079Z,14.50
2023-04-10T13:50:37.331Z,14.40
2023-04-10T13:53:07.358Z,14.30
2023-04-10T13:55:36.322Z,14.20
2023-04-10T13:58:04.233Z,14.20
2023-04-10T14:00:32.129Z,14.20
2023-04-10T14:03:00.103Z,14.40
2023-04-10T14:05:28.046Z,14.30
2023-04-10T14:07:57.671Z,14.50
2023-04-10T14:10:25.694Z,14.50
2023-04-10T14:12:53.565Z,14.40
2023-04-10T14:15:21.401Z,14.60
2023-04-10T14:17:49.300Z,14.80
2023-04-10T14:20:17.124Z,14.70
2023-04-10T14:22:44.991Z,14.90
2023-04-10T14:25:15.997Z,14.80
2023-04-10T14:27:44.603Z,14.80
2023-04-10T14:30:13.779Z,15.10
2023-04-10T14:32:41.758Z,15.30
2023-04-10T14:35:10.645Z,15.10
2023-04-10T14:37:38.688Z,14.80
2023-04-10T14:40:07.842Z,14.50
2023-04-10T14:42:37.071Z,14.60
2023-04-10T14:45:06.143Z,14.70
2023-04-10T14:47:34.043Z,14.70
2023-04-10T14:50:01.982Z,14.50
2023-04-10T14:52:29.860Z,14.30
2023-04-10T14:54:57.673Z,14.30
2023-04-10T14:57:25.680Z,14.40
2023-04-10T14:59:54.847Z,14.40
2023-04-10T15:02:22.786Z,14.50
2023-04-10T15:04:51.750Z,14.80
2023-04-10T15:07:19.692Z,15.00
2023-04-10T15:09:47.559Z,14.90
2023-04-10T15:12:15.446Z,15.00
2023-04-10T15:14:43.315Z,14.60
2023-04-10T15:17:12.562Z,14.90
2023-04-10T15:19:40.456Z,15.00
2023-04-10T15:22:08.297Z,15.00
2023-04-10T15:24:47.032Z,14.80
2023-04-10T15:27:20.838Z,14.80
2023-04-10T15:29:49.106Z,14.70
2023-04-10T15:32:18.299Z,14.80
2023-04-10T15:34:46.409Z,14.90
2023-04-10T15:37:14.259Z,14.90
2023-04-10T15:39:42.101Z,14.90
2023-04-10T15:42:10.262Z,14.60
2023-04-10T15:44:38.088Z,14.50
2023-04-10T15:47:06.014Z,14.40
2023-04-10T15:49:38.251Z,14.40
2023-04-10T15:52:06.956Z,14.40
2023-04-10T15:54:35.413Z,14.30
2023-04-10T15:57:03.661Z,14.30
2023-04-10T15:59:31.812Z,14.30
2023-04-10T16:02:00.197Z,14.30
2023-04-10T16:04:28.964Z,14.20
2023-04-10T16:06:58.335Z,14.20
2023-04-10T16:09:26.784Z,14.30
2023-04-10T16:11:56.093Z,14.40
2023-04-10T16:14:24.118Z,14.40
2023-04-10T16:16:52.215Z,14.60
2023-04-10T16:19:20.196Z,14.40
2023-04-10T16:21:48.098Z,14.50
2023-04-10T16:24:17.441Z,14.20
2023-04-10T16:26:45.302Z,14.10
2023-04-10T16:29:13.143Z,13.90
2023-04-10T16:31:41.107Z,13.80
2023-04-10T16:34:09.044Z,13.80
2023-04-10T16:36:36.936Z,13.80
2023-04-10T16:39:05.693Z,13.90
2023-04-10T16:41:34.901Z,13.80
2023-04-10T16:44:03.127Z,13.80
2023-04-10T16:46:32.705Z,13.60
2023-04-10T16:49:01.502Z,13.70
2023-04-10T16:51:29.386Z,13.60
2023-04-10T16:53:57.340Z,13.60
2023-04-10T16:56:25.242Z,13.60
2023-04-10T16:58:54.667Z,13.50
2023-04-10T17:01:26.026Z,13.40
2023-04-10T17:03:54.907Z,13.30
2023-04-10T17:06:23.062Z,13.20
2023-04-10T17:08:50.952Z,13.10
2023-04-10T17:11:18.803Z,13.00
2023-04-10T17:13:47.338Z,13.00
2023-04-10T17:16:16.642Z,13.00
2023-04-10T17:18:44.998Z,12.90
2023-04-10T17:21:13.232Z,12.80
2023-04-10T17:23:41.583Z,12.70
2023-04-10T17:26:14.169Z,12.60
2023-04-10T17:28:44.324Z,12.60
2023-04-10T17:31:12.610Z,12.60
2023-04-10T17:33:42.735Z,12.60
2023-04-10T17:36:12.190Z,12.50
2023-04-10T17:38:40.966Z,12.40
2023-04-10T17:41:09.387Z,12.30
2023-04-10T17:43:37.501Z,12.30
2023-04-10T17:46:05.640Z,12.20
2023-04-10T17:48:34.962Z,12.20
2023-04-10T17:51:07.379Z,12.10
2023-04-10T17:53:35.862Z,12.00
2023-04-10T17:56:03.813Z,11.90
2023-04-10T17:58:31.852Z,11.90
2023-04-10T18:00:59.807Z,11.80
2023-04-10T18:03:27.796Z,11.70
2023-04-10T18:05:55.820Z,11.70
2023-04-10T18:08:25.043Z,11.70
2023-04-10T18:10:52.896Z,11.70
2023-04-10T18:13:20.785Z,11.70
2023-04-10T18:15:48.699Z,11.60
2023-04-10T18:18:16.536Z,11.60
2023-04-10T18:20:44.366Z,11.50
2023-04-10T18:23:12.254Z,11.40
2023-04-10T18:25:41.421Z,11.30
2023-04-10T18:28:14.945Z,11.30
2023-04-10T18:30:43.931Z,11.20
2023-04-10T18:33:11.915Z,11.20
2023-04-10T18:35:39.982Z,11.10
2023-04-10T18:38:07.949Z,11.10
2023-04-10T18:40:36.811Z,11.00
2023-04-10T18:43:06.336Z,11.00
2023-04-10T18:45:35.402Z,10.90
2023-04-10T18:48:03.301Z,11.00
2023-04-10T18:50:34.880Z,11.00
2023-04-10T18:53:02.760Z,10.90
2023-04-10T18:55:30.692Z,10.90
2023-04-10T18:57:58.526Z,10.80
2023-04-10T19:00:27.738Z,10.80
2023-04-10T19:02:56.714Z,10.80
2023-04-10T19:05:24.704Z,10.70
2023-04-10T19:08:02.820Z,10.70
2023-04-10T19:10:31.373Z,10.70
2023-04-10T19:12:59.244Z,10.60
2023-04-10T19:15:28.436Z,10.60
2023-04-10T19:17:56.440Z,10.60
2023-04-10T19:20:50.759Z,10.60
2023-04-10T19:23:12.834Z,10.50
2023-04-10T19:25:40.891Z,10.50
2023-04-10T19:28:08.795Z,10.40
2023-04-10T19:30:37.974Z,10.20
2023-04-10T19:33:05.990Z,10.10
2023-04-10T19:35:33.950Z,10.00
2023-04-10T19:38:01.829Z,10.00
2023-04-10T19:40:31.951Z,9.80
2023-04-10T19:43:01.766Z,9.70
2023-04-10T19:45:32.326Z,9.70
2023-04-10T19:48:01.628Z,9.70
2023-04-10T19:50:31.033Z,9.60
2023-04-10T19:53:00.311Z,9.50
2023-04-10T19:55:29.564Z,9.50
2023-04-10T19:57:57.509Z,9.40
2023-04-10T20:00:25.391Z,9.40
2023-04-10T20:02:53.493Z,9.40
2023-04-10T20:05:22.926Z,9.40
2023-04-10T20:07:50.964Z,9.30
2023-04-10T20:10:18.866Z,9.30
2023-04-10T20:12:46.697Z,9.30
2023-04-10T20:15:14.711Z,9.20
2023-04-10T20:17:42.594Z,9.10
2023-04-10T20:20:12.628Z,9.10
2023-04-10T20:22:44.934Z,9.10
2023-04-10T20:25:12.806Z,8.90
2023-04-10T20:27:40.663Z,8.90
2023-04-10T20:30:13.022Z,8.80
2023-04-10T20:32:41.239Z,8.80
2023-04-10T20:35:10.197Z,8.80
2023-04-10T20:37:38.039Z,8.80
2023-04-10T20:40:08.929Z,8.80
2023-04-10T20:42:36.781Z,8.70
2023-04-10T20:45:04.959Z,8.70
2023-04-10T20:47:32.836Z,8.70
2023-04-10T20:50:00.709Z,8.70
2023-04-10T20:52:28.606Z,8.70
2023-04-10T20:54:56.583Z,8.70
2023-04-10T20:57:25.750Z,8.60
2023-04-10T21:02:39.837Z,8.60
2023-04-10T21:05:08.280Z,8.60
2023-04-10T21:07:36.143Z,8.60
2023-04-10T21:10:04.277Z,8.60
2023-04-10T21:12:33.514Z,8.60
2023-04-10T21:15:01.342Z,8.50
2023-04-10T21:17:31.486Z,8.50
2023-04-10T21:19:59.770Z,8.60
2023-04-10T21:22:29.352Z,8.60
2023-04-10T21:24:57.597Z,8.70
2023-04-10T21:27:25.482Z,8.60
2023-04-10T21:29:54.716Z,8.60
2023-04-10T21:32:22.673Z,8.50
2023-04-10T21:34:50.592Z,8.40
2023-04-10T21:37:18.477Z,8.40
2023-04-10T21:39:46.326Z,8.40
2023-04-10T21:42:14.179Z,8.40
2023-04-10T21:44:42.035Z,8.40
2023-04-10T21:47:11.190Z,8.40
2023-04-10T21:49:39.053Z,8.40
2023-04-10T21:52:07.229Z,8.40
2023-04-10T21:54:36.149Z,8.40
2023-04-10T21:57:04.087Z,8.40
2023-04-10T21:59:32.140Z,8.20
2023-04-10T22:02:00.051Z,8.20
2023-04-10T22:04:29.275Z,8.20
2023-04-10T22:06:57.202Z,8.20
2023-04-10T22:09:25.022Z,8.10
2023-04-10T22:11:52.862Z,8.00
2023-04-10T22:14:21.493Z,8.00
2023-04-10T22:16:49.565Z,7.90
2023-04-10T22:19:17.477Z,7.90
2023-04-10T22:21:46.678Z,7.80
2023-04-10T22:24:14.531Z,7.70
2023-04-10T22:26:45.780Z,7.60
2023-04-10T22:29:14.527Z,7.60
2023-04-10T22:31:42.738Z,7.60
2023-04-10T22:34:10.811Z,7.70
2023-04-10T22:36:38.711Z,7.70
2023-04-10T22:39:07.924Z,7.60
2023-04-10T22:41:35.893Z,7.60
2023-04-10T22:44:03.804Z,7.60
2023-04-10T22:46:31.776Z,7.60
2023-04-10T22:48:59.696Z,7.60
2023-04-10T22:51:27.722Z,7.60
2023-04-10T22:53:55.755Z,7.70
2023-04-10T22:56:28.366Z,7.90
2023-04-10T22:58:56.776Z,7.90
2023-04-10T23:01:24.803Z,7.90
2023-04-10T23:03:53.734Z,8.00
2023-04-10T23:06:21.907Z,8.00
2023-04-10T23:08:49.801Z,8.10
2023-04-10T23:11:17.663Z,8.20
2023-04-10T23:13:46.921Z,8.30
2023-04-10T23:16:14.861Z,8.40
2023-04-10T23:18:42.776Z,8.40
2023-04-10T23:21:10.619Z,8.40
2023-04-10T23:23:38.528Z,8.50
2023-04-10T23:26:06.824Z,8.60
2023-04-10T23:28:34.683Z,8.70
2023-04-10T23:31:03.950Z,8.70
2023-04-10T23:33:31.882Z,8.70
2023-04-10T23:35:59.987Z,8.70
2023-04-10T23:38:27.879Z,8.80
2023-04-10T23:40:55.768Z,8.80
2023-04-10T23:43:23.633Z,8.90
2023-04-10T23:45:51.508Z,8.90
2023-04-10T23:48:20.739Z,8.90
2023-04-10T23:50:48.609Z,9.00
2023-04-10T23:53:16.450Z,9.00
2023-04-10T23:55:44.404Z,9.10
2023-04-10T23:58:12.234Z,9.10
